Time;durP1;ratioP1;P1;durP2;ratioP2;P2;SDS_P1;SDS_P2;PMS_P1;PMS_P2;Temp;Humidity;BMP_temperature;BMP_pressure;BME280_temperature;BME280_humidity;BME280_pressure;Samples;Min_cycle;Max_cycle;Signal;HPM_P1;HPM_P2
2024/02/19 00:02:04;;;;;;;16.85;9.80;;;13.20;71.50;;;;;;5036658;28;20589;-77
2024/02/19 00:04:49;;;;;;;16.13;9.63;;;13.20;71.60;;;;;;5038602;28;20044;-76
2024/02/19 00:07:34;;;;;;;18.52;10.77;;;13.20;71.60;;;;;;5032463;28;20102;-79
2024/02/19 00:10:18;;;;;;;24.40;10.60;;;13.20;71.70;;;;;;5034608;28;20044;-79
2024/02/19 00:13:03;;;;;;;19.52;11.05;;;13.20;71.70;;;;;;5035750;28;20048;-79
2024/02/19 00:15:48;;;;;;;17.30;10.40;;;13.20;71.70;;;;;;5031464;28;20482;-79
2024/02/19 00:18:34;;;;;;;20.42;10.02;;;13.20;71.80;;;;;;5028638;28;20064;-79
2024/02/19 00:21:18;;;;;;;20.20;10.32;;;13.20;71.80;;;;;;5036026;28;20043;-79
2024/02/19 00:24:03;;;;;;;23.92;12.85;;;13.20;71.80;;;;;;5036911;28;20044;-78
2024/02/19 00:26:47;;;;;;;24.60;11.63;;;13.20;71.90;;;;;;5031553;28;20071;-79
2024/02/19 00:29:33;;;;;;;17.55;10.43;;;13.20;71.90;;;;;;5033202;28;20124;-79
2024/02/19 00:32:18;;;;;;;24.35;12.35;;;13.20;71.90;;;;;;5036519;28;20412;-79
2024/02/19 00:35:06;;;;;;;26.88;13.68;;;13.20;71.90;;;;;;5038188;28;20040;-78
2024/02/19 00:37:52;;;;;;;19.83;11.07;;;13.20;71.90;;;;;;5036488;28;20573;-79
2024/02/19 00:40:37;;;;;;;25.08;10.10;;;13.20;72.00;;;;;;5039972;28;20059;-79
2024/02/19 00:43:22;;;;;;;17.08;10.00;;;13.20;72.00;;;;;;5042870;28;20048;-79
2024/02/19 00:46:06;;;;;;;21.55;10.65;;;13.10;71.80;;;;;;5041185;28;20071;-79
2024/02/19 00:48:51;;;;;;;20.05;8.68;;;13.10;71.90;;;;;;5036198;28;20091;-79
2024/02/19 00:51:35;;;;;;;22.40;8.27;;;13.10;71.90;;;;;;5027210;28;20453;-79
2024/02/19 00:54:20;;;;;;;22.85;8.50;;;13.10;71.90;;;;;;5038208;28;20044;-78
2024/02/19 00:57:05;;;;;;;21.02;9.32;;;13.10;72.00;;;;;;5038427;28;20611;-79
2024/02/19 00:59:49;;;;;;;19.17;8.88;;;13.10;72.00;;;;;;5037334;28;20497;-79
2024/02/19 01:02:37;;;;;;;18.90;8.90;;;13.10;72.00;;;;;;5033950;28;20506;-79
2024/02/19 01:05:22;;;;;;;16.55;8.15;;;13.10;72.10;;;;;;5027668;28;20138;-77
2024/02/19 01:08:07;;;;;;;22.08;9.40;;;13.10;72.10;;;;;;5036979;28;20040;-77
2024/02/19 01:10:51;;;;;;;19.83;8.32;;;13.10;72.10;;;;;;5035621;28;20144;-77
2024/02/19 01:13:36;;;;;;;18.35;8.73;;;13.00;72.00;;;;;;5040621;28;20083;-78
2024/02/19 01:16:20;;;;;;;18.85;9.02;;;13.00;72.00;;;;;;5035742;28;20056;-77
2024/02/19 01:19:08;;;;;;;17.35;8.50;;;13.00;72.00;;;;;;5028367;28;20099;-77
2024/02/19 01:21:53;;;;;;;20.77;9.35;;;13.00;72.10;;;;;;5038428;28;20095;-78
2024/02/19 01:24:37;;;;;;;19.55;8.30;;;13.00;72.10;;;;;;5039174;28;20051;-77
2024/02/19 01:27:24;;;;;;;18.67;8.65;;;13.00;72.10;;;;;;5030379;28;20116;-77
2024/02/19 01:30:10;;;;;;;21.42;8.45;;;13.00;72.10;;;;;;5032480;28;20052;-77
2024/02/19 01:32:54;;;;;;;19.52;8.48;;;13.00;72.20;;;;;;5038784;28;20075;-77
2024/02/19 01:35:39;;;;;;;19.92;7.30;;;13.00;72.20;;;;;;5038779;28;20455;-77
2024/02/19 01:38:23;;;;;;;17.30;7.20;;;13.10;72.40;;;;;;5033047;28;20432;-77
2024/02/19 01:41:08;;;;;;;25.77;8.52;;;13.00;72.30;;;;;;5039304;28;20533;-77
2024/02/19 01:43:53;;;;;;;19.85;8.32;;;13.00;72.30;;;;;;5037195;28;20047;-78
2024/02/19 01:46:41;;;;;;;18.10;6.32;;;13.00;72.30;;;;;;5040363;28;20396;-78
2024/02/19 01:49:25;;;;;;;16.42;6.47;;;13.00;72.30;;;;;;5031042;28;20415;-77
2024/02/19 01:52:12;;;;;;;18.77;5.75;;;13.00;72.30;;;;;;5028544;28;20125;-77
2024/02/19 01:54:56;;;;;;;18.42;5.22;;;13.00;72.30;;;;;;5040430;28;20044;-77
2024/02/19 01:57:42;;;;;;;18.52;6.88;;;13.00;72.40;;;;;;5033404;28;20048;-77
2024/02/19 02:00:28;;;;;;;21.58;6.63;;;13.00;72.50;;;;;;5038755;28;20036;-77
2024/02/19 02:03:17;;;;;;;17.40;5.80;;;13.00;72.50;;;;;;5036962;28;20059;-77
2024/02/19 02:06:02;;;;;;;21.67;6.53;;;13.00;72.50;;;;;;5037677;28;20633;-77
2024/02/19 02:08:46;;;;;;;24.83;5.22;;;13.00;72.50;;;;;;5031583;28;20446;-77
2024/02/19 02:11:31;;;;;;;19.48;6.72;;;13.00;72.60;;;;;;5039044;28;20092;-77
2024/02/19 02:14:16;;;;;;;18.27;6.43;;;13.00;72.60;;;;;;5041134;28;20128;-78
2024/02/19 02:17:00;;;;;;;21.02;6.43;;;13.00;73.20;;;;;;5036213;28;20146;-78
2024/02/19 02:19:46;;;;;;;25.55;7.75;;;13.00;72.60;;;;;;5038583;28;20107;-78
2024/02/19 02:22:30;;;;;;;20.02;5.95;;;13.00;72.70;;;;;;5037888;28;20136;-78
2024/02/19 02:25:15;;;;;;;24.92;6.75;;;13.00;72.70;;;;;;5014423;28;20095;-78
2024/02/19 02:28:00;;;;;;;19.65;5.97;;;13.00;72.70;;;;;;5041781;28;20036;-77
2024/02/19 02:30:44;;;;;;;21.27;7.20;;;13.00;72.70;;;;;;5040500;28;20090;-78
2024/02/19 02:33:28;;;;;;;22.40;5.60;;;13.00;72.70;;;;;;5037841;28;20048;-78
2024/02/19 02:36:13;;;;;;;26.25;7.00;;;13.00;72.70;;;;;;5036437;28;20099;-78
2024/02/19 02:38:57;;;;;;;16.88;6.03;;;12.90;72.60;;;;;;5033023;28;20059;-77
2024/02/19 02:41:42;;;;;;;26.10;6.32;;;12.90;72.60;;;;;;5034837;28;20052;-78
2024/02/19 02:44:27;;;;;;;25.63;5.78;;;13.00;72.80;;;;;;5027430;28;20611;-77
2024/02/19 02:47:12;;;;;;;22.30;6.20;;;12.90;72.60;;;;;;5042560;28;20047;-77
2024/02/19 02:49:56;;;;;;;26.02;6.50;;;12.90;72.60;;;;;;5032707;28;20027;-77
2024/02/19 02:52:42;;;;;;;16.95;5.35;;;12.90;72.70;;;;;;5039662;28;20039;-79
2024/02/19 02:55:26;;;;;;;19.75;6.53;;;12.90;72.70;;;;;;5043938;28;20040;-77
2024/02/19 02:58:11;;;;;;;20.48;5.53;;;12.90;72.70;;;;;;5043068;28;20549;-77
2024/02/19 03:00:55;;;;;;;19.35;5.65;;;12.90;72.80;;;;;;5031127;28;20059;-78
2024/02/19 03:03:40;;;;;;;24.23;5.28;;;12.90;72.80;;;;;;5024360;28;20087;-77
2024/02/19 03:06:25;;;;;;;21.90;5.78;;;12.90;72.80;;;;;;5029310;28;20115;-79
2024/02/19 03:09:10;;;;;;;24.92;6.07;;;12.90;72.80;;;;;;5043535;28;20042;-77
2024/02/19 03:11:55;;;;;;;18.90;3.80;;;12.90;72.80;;;;;;5036866;28;20047;-77
2024/02/19 03:14:40;;;;;;;15.18;4.00;;;12.90;72.90;;;;;;5044009;28;20485;-77
2024/02/19 03:17:24;;;;;;;20.35;5.50;;;12.90;72.90;;;;;;5045173;28;20052;-77
2024/02/19 03:20:13;;;;;;;19.65;5.85;;;12.90;72.90;;;;;;5038402;28;20388;-77
2024/02/19 03:22:57;;;;;;;17.70;4.38;;;12.90;72.90;;;;;;5043293;28;20032;-77
2024/02/19 03:25:46;;;;;;;16.60;5.40;;;12.90;72.90;;;;;;5044610;28;20095;-77
2024/02/19 03:28:30;;;;;;;19.70;5.25;;;12.90;72.90;;;;;;5040897;28;20399;-77
2024/02/19 03:31:14;;;;;;;17.15;4.50;;;12.90;72.90;;;;;;5039402;28;20483;-77
2024/02/19 03:33:59;;;;;;;16.75;3.95;;;12.90;72.90;;;;;;5046059;28;20095;-77
2024/02/19 03:36:49;;;;;;;18.08;4.50;;;12.90;72.90;;;;;;5044035;28;20093;-77
2024/02/19 03:39:33;;;;;;;16.10;4.47;;;12.90;72.90;;;;;;5038043;28;20055;-78
2024/02/19 03:42:19;;;;;;;16.85;4.72;;;12.90;72.90;;;;;;5044014;28;20515;-78
2024/02/19 03:45:04;;;;;;;20.27;5.22;;;12.90;72.90;;;;;;5043921;28;20064;-78
2024/02/19 03:47:49;;;;;;;17.63;4.20;;;12.90;72.90;;;;;;5047782;28;20131;-78
2024/02/19 03:50:33;;;;;;;27.45;6.32;;;12.80;72.80;;;;;;5036654;28;20048;-78
2024/02/19 03:53:19;;;;;;;21.73;3.88;;;12.80;72.80;;;;;;5047261;28;20035;-79
2024/02/19 03:56:04;;;;;;;14.65;4.00;;;12.80;72.80;;;;;;5024781;28;20084;-80
2024/02/19 03:58:48;;;;;;;12.00;3.45;;;12.80;72.80;;;;;;5044669;28;20228;-80
2024/02/19 04:01:33;;;;;;;17.52;4.68;;;12.80;72.90;;;;;;5045176;28;20545;-78
2024/02/19 04:04:18;;;;;;;12.68;3.75;;;12.80;72.90;;;;;;5044881;28;20044;-77
2024/02/19 04:07:03;;;;;;;16.55;4.32;;;12.80;72.90;;;;;;5041075;28;20098;-78
2024/02/19 04:09:47;;;;;;;15.65;3.40;;;12.80;72.90;;;;;;5039931;28;20113;-77
2024/02/19 04:12:32;;;;;;;16.27;4.47;;;12.80;72.90;;;;;;5045268;28;20051;-78
2024/02/19 04:15:16;;;;;;;20.15;3.90;;;12.80;72.90;;;;;;5037147;28;20127;-79
2024/02/19 04:18:01;;;;;;;18.02;4.93;;;12.80;72.90;;;;;;5041913;28;20064;-79
2024/02/19 04:20:46;;;;;;;17.15;3.85;;;12.80;72.90;;;;;;5044908;28;20079;-80
2024/02/19 04:23:30;;;;;;;17.92;3.90;;;12.80;72.90;;;;;;5036941;28;20193;-79
2024/02/19 04:26:18;;;;;;;17.90;3.55;;;12.80;73.00;;;;;;5043132;28;20047;-79
2024/02/19 04:29:02;;;;;;;11.38;3.72;;;12.80;73.00;;;;;;5044131;28;20040;-79
2024/02/19 04:31:47;;;;;;;13.90;3.67;;;12.80;73.10;;;;;;5038544;28;20053;-79
2024/02/19 04:34:32;;;;;;;18.38;3.92;;;12.80;73.10;;;;;;5044443;28;20048;-80
2024/02/19 04:37:17;;;;;;;13.60;3.40;;;12.80;73.10;;;;;;5029985;28;20083;-79
2024/02/19 04:40:03;;;;;;;19.27;4.43;;;12.80;73.20;;;;;;5040798;28;20043;-80
2024/02/19 04:42:47;;;;;;;11.75;3.22;;;12.80;73.20;;;;;;5044558;28;20171;-81
2024/02/19 04:45:32;;;;;;;15.27;4.47;;;12.80;73.20;;;;;;5020931;28;20095;-80
2024/02/19 04:48:17;;;;;;;13.50;3.05;;;12.90;73.40;;;;;;5043597;28;20064;-80
2024/02/19 04:51:02;;;;;;;12.93;3.00;;;12.90;73.40;;;;;;5037145;28;20074;-80
2024/02/19 04:53:46;;;;;;;12.88;4.30;;;12.90;73.40;;;;;;5039020;28;20043;-80
2024/02/19 04:56:31;;;;;;;14.75;3.53;;;12.90;73.40;;;;;;5042258;28;20164;-81
2024/02/19 04:59:15;;;;;;;12.77;3.63;;;12.90;73.40;;;;;;5038602;28;20067;-80
2024/02/19 05:02:00;;;;;;;17.55;3.60;;;12.90;73.50;;;;;;5045507;28;20071;-80
2024/02/19 05:04:44;;;;;;;15.45;3.45;;;12.90;73.40;;;;;;5045484;28;20117;-81
2024/02/19 05:07:30;;;;;;;12.38;2.92;;;12.90;73.40;;;;;;5040157;28;20036;-81
2024/02/19 05:10:14;;;;;;;12.73;3.03;;;12.90;73.40;;;;;;5045441;28;20092;-80
2024/02/19 05:12:59;;;;;;;17.48;3.78;;;12.90;73.40;;;;;;5036272;28;20063;-81
2024/02/19 05:15:44;;;;;;;12.13;2.67;;;12.90;73.50;;;;;;5043689;28;20582;-80
2024/02/19 05:18:29;;;;;;;14.85;3.17;;;12.90;73.50;;;;;;5042021;28;20044;-81
2024/02/19 05:21:14;;;;;;;13.82;3.92;;;12.90;73.50;;;;;;5038929;28;20036;-80
2024/02/19 05:24:00;;;;;;;13.10;3.33;;;12.90;73.50;;;;;;5044696;28;20063;-81
2024/02/19 05:26:45;;;;;;;14.57;2.75;;;12.90;73.50;;;;;;5040297;28;20710;-78
2024/02/19 05:29:29;;;;;;;11.43;3.53;;;12.80;73.30;;;;;;5041276;28;20107;-79
2024/02/19 05:32:14;;;;;;;13.05;2.65;;;12.90;73.60;;;;;;5046593;28;21232;-79
2024/02/19 05:34:59;;;;;;;12.25;3.38;;;12.90;73.60;;;;;;5048689;28;20044;-80
2024/02/19 05:37:45;;;;;;;15.13;4.07;;;12.90;73.60;;;;;;5044556;28;20551;-80
2024/02/19 05:40:30;;;;;;;12.02;3.17;;;12.90;73.70;;;;;;5033965;28;20127;-80
2024/02/19 05:43:14;;;;;;;11.85;2.97;;;12.90;73.70;;;;;;5044004;28;20124;-80
2024/02/19 05:45:58;;;;;;;14.98;3.75;;;12.90;73.70;;;;;;5045844;28;20079;-80
2024/02/19 05:48:43;;;;;;;13.48;2.88;;;12.90;73.70;;;;;;5038652;28;20035;-80
2024/02/19 05:51:27;;;;;;;9.60;2.83;;;12.90;73.70;;;;;;5040773;28;20097;-80
2024/02/19 05:54:12;;;;;;;15.05;3.75;;;12.90;73.80;;;;;;5035049;28;20173;-79
2024/02/19 05:56:57;;;;;;;9.88;2.75;;;12.90;74.30;;;;;;5042172;28;20483;-79
2024/02/19 05:59:41;;;;;;;16.25;4.25;;;12.90;73.80;;;;;;5035876;28;20407;-79
2024/02/19 06:02:26;;;;;;;17.13;3.65;;;12.90;73.80;;;;;;5044517;28;20220;-79
2024/02/19 06:05:11;;;;;;;11.70;2.92;;;12.90;73.90;;;;;;5045714;28;20047;-78
2024/02/19 06:07:55;;;;;;;14.52;3.67;;;13.00;74.10;;;;;;5041855;28;20810;-79
2024/02/19 06:10:43;;;;;;;15.40;2.95;;;13.00;74.10;;;;;;5026189;28;20047;-79
2024/02/19 06:13:28;;;;;;;16.92;2.92;;;13.00;74.10;;;;;;5050921;28;20044;-79
2024/02/19 06:16:12;;;;;;;11.80;3.33;;;13.00;74.10;;;;;;5042617;28;20492;-79
2024/02/19 06:19:01;;;;;;;19.65;3.53;;;13.00;74.10;;;;;;5041121;28;20099;-79
2024/02/19 06:21:45;;;;;;;10.77;2.58;;;13.00;74.10;;;;;;5041188;28;20139;-79
2024/02/19 06:24:30;;;;;;;12.98;3.92;;;13.00;74.20;;;;;;5042525;28;20093;-78
2024/02/19 06:27:14;;;;;;;15.02;4.53;;;13.10;74.30;;;;;;5047100;28;20071;-79
2024/02/19 06:29:59;;;;;;;17.92;4.32;;;13.00;74.20;;;;;;5045236;28;20036;-79
2024/02/19 06:32:43;;;;;;;17.67;3.80;;;13.10;74.40;;;;;;5048036;28;20060;-79
2024/02/19 06:35:28;;;;;;;16.20;3.33;;;13.00;74.30;;;;;;5042975;28;20044;-79
2024/02/19 06:38:12;;;;;;;16.00;3.65;;;13.00;74.30;;;;;;5028024;28;20064;-81
2024/02/19 06:40:57;;;;;;;13.43;3.35;;;13.00;74.30;;;;;;5048175;28;20040;-81
2024/02/19 06:43:41;;;;;;;13.43;3.60;;;13.00;74.30;;;;;;5042078;28;20118;-81
2024/02/19 06:46:25;;;;;;;10.77;3.15;;;13.00;74.40;;;;;;5035605;28;20246;-79
2024/02/19 06:49:10;;;;;;;14.55;2.83;;;13.10;74.60;;;;;;5037734;28;20040;-79
2024/02/19 06:51:54;;;;;;;14.50;2.92;;;13.00;74.40;;;;;;5041333;28;20218;-79
2024/02/19 06:54:38;;;;;;;13.70;3.05;;;13.10;74.80;;;;;;5039104;28;20166;-79
2024/02/19 06:57:23;;;;;;;14.85;2.92;;;13.10;75.00;;;;;;5035120;28;20040;-80
2024/02/19 07:00:12;;;;;;;16.70;3.40;;;13.20;75.20;;;;;;5049248;28;20549;-80
2024/02/19 07:02:57;;;;;;;15.18;3.00;;;13.20;75.30;;;;;;5040716;28;20111;-78
2024/02/19 07:05:42;;;;;;;15.70;3.22;;;13.20;75.50;;;;;;5044922;28;20056;-78
2024/02/19 07:08:27;;;;;;;15.65;3.78;;;13.20;75.50;;;;;;5039973;28;20093;-78
2024/02/19 07:11:11;;;;;;;16.10;3.65;;;13.30;75.80;;;;;;5038971;28;20106;-78
2024/02/19 07:13:56;;;;;;;22.50;4.80;;;13.30;75.80;;;;;;5037239;28;20441;-78
2024/02/19 07:16:41;;;;;;;24.92;7.38;;;13.30;75.90;;;;;;5039148;28;20046;-79
2024/02/19 07:19:26;;;;;;;19.52;4.63;;;13.30;76.00;;;;;;5031086;28;20461;-79
2024/02/19 07:22:11;;;;;;;13.88;3.88;;;13.20;75.90;;;;;;5041680;28;20047;-83
2024/02/19 07:24:57;;;;;;;34.80;7.93;;;13.20;75.80;;;;;;5035510;28;20060;-80
2024/02/19 07:27:41;;;;;;;28.95;7.30;;;13.20;76.00;;;;;;5042605;28;20168;-79
2024/02/19 07:30:26;;;;;;;23.58;7.20;;;13.30;76.30;;;;;;5036801;28;20517;-80
2024/02/19 07:33:12;;;;;;;26.35;6.47;;;13.20;76.20;;;;;;5050971;28;20399;-80
2024/02/19 07:35:57;;;;;;;18.33;5.75;;;13.20;76.20;;;;;;5035135;28;20040;-78
2024/02/19 07:38:41;;;;;;;23.95;6.40;;;13.30;76.40;;;;;;5036775;28;20047;-77
2024/02/19 07:41:26;;;;;;;24.98;6.55;;;13.30;76.40;;;;;;5036702;28;20098;-77
2024/02/19 07:44:11;;;;;;;18.00;5.18;;;13.20;76.20;;;;;;5033717;28;20455;-78
2024/02/19 07:46:55;;;;;;;15.65;4.63;;;13.30;76.30;;;;;;5032344;28;20298;-77
2024/02/19 07:49:40;;;;;;;16.23;5.88;;;13.20;76.10;;;;;;5027893;28;20542;-77
2024/02/19 07:52:24;;;;;;;13.68;4.45;;;13.20;76.10;;;;;;5034778;28;20120;-77
2024/02/19 07:55:09;;;;;;;15.40;4.45;;;13.20;76.10;;;;;;5038088;28;20044;-77
2024/02/19 07:57:54;;;;;;;14.90;5.32;;;13.20;76.50;;;;;;5037528;28;20103;-77
2024/02/19 08:00:38;;;;;;;14.07;4.38;;;13.20;76.00;;;;;;5019066;28;20419;-77
2024/02/19 08:03:22;;;;;;;9.80;3.38;;;13.20;75.90;;;;;;5028232;28;20101;-77
2024/02/19 08:06:07;;;;;;;13.95;3.88;;;13.20;75.90;;;;;;5030471;28;20095;-77
2024/02/19 08:08:51;;;;;;;13.00;3.65;;;13.20;75.80;;;;;;5036201;28;20036;-78
2024/02/19 08:11:37;;;;;;;9.77;3.20;;;13.20;75.80;;;;;;5018532;28;20110;-77
2024/02/19 08:14:21;;;;;;;9.13;3.30;;;13.10;75.60;;;;;;5035191;28;20040;-79
2024/02/19 08:17:06;;;;;;;10.35;3.15;;;13.20;75.70;;;;;;5029885;28;20125;-79
2024/02/19 08:19:50;;;;;;;10.18;3.47;;;13.20;75.60;;;;;;5039051;28;20177;-78
2024/02/19 08:22:35;;;;;;;10.13;2.83;;;13.10;75.40;;;;;;5040777;28;20149;-77
2024/02/19 08:25:19;;;;;;;9.18;2.65;;;13.20;75.50;;;;;;5028049;28;20121;-77
2024/02/19 08:28:04;;;;;;;7.22;2.85;;;13.20;75.50;;;;;;5039643;28;20113;-77
2024/02/19 08:30:49;;;;;;;9.38;2.97;;;13.20;75.40;;;;;;5029926;28;20100;-77
2024/02/19 08:33:33;;;;;;;9.13;2.65;;;13.20;75.40;;;;;;5030692;28;20076;-77
2024/02/19 08:36:18;;;;;;;7.50;2.60;;;13.20;75.30;;;;;;5035960;28;20589;-77
2024/02/19 08:39:03;;;;;;;8.63;2.15;;;13.20;75.30;;;;;;5033869;28;20411;-77
2024/02/19 08:41:48;;;;;;;8.48;2.58;;;13.20;75.20;;;;;;5035146;28;20044;-77
2024/02/19 08:44:32;;;;;;;7.78;2.55;;;13.20;75.10;;;;;;5039227;28;20324;-77
2024/02/19 08:47:18;;;;;;;5.45;2.50;;;13.20;75.10;;;;;;5033517;28;20107;-77
2024/02/19 08:50:02;;;;;;;4.65;2.10;;;13.30;75.20;;;;;;5025058;28;20531;-77
2024/02/19 08:52:47;;;;;;;6.93;2.70;;;13.30;75.10;;;;;;5036845;28;20959;-78
2024/02/19 08:55:31;;;;;;;11.23;3.53;;;13.30;75.10;;;;;;5032435;28;20059;-77
2024/02/19 08:58:16;;;;;;;7.05;2.17;;;13.40;75.20;;;;;;5035412;28;20052;-77
2024/02/19 09:01:06;;;;;;;8.57;2.55;;;13.40;75.10;;;;;;5028478;28;20063;-77
2024/02/19 09:03:53;;;;;;;4.80;1.75;;;13.40;75.00;;;;;;5031840;28;20107;-77
2024/02/19 09:06:37;;;;;;;4.75;1.60;;;13.50;75.00;;;;;;5032712;28;20115;-78
2024/02/19 09:09:22;;;;;;;5.10;1.83;;;13.50;74.90;;;;;;5048033;28;20524;-78
2024/02/19 09:12:07;;;;;;;5.15;2.08;;;13.60;75.00;;;;;;5048492;28;20043;-77
2024/02/19 09:14:52;;;;;;;5.78;1.77;;;13.70;75.00;;;;;;5032706;28;20286;-77
2024/02/19 09:17:37;;;;;;;5.13;2.05;;;13.70;74.90;;;;;;5029901;28;20052;-77
2024/02/19 09:20:22;;;;;;;4.15;1.50;;;13.70;74.80;;;;;;5040151;28;20590;-77
2024/02/19 09:23:07;;;;;;;5.13;1.25;;;13.80;74.80;;;;;;5037272;28;20553;-78
2024/02/19 09:25:54;;;;;;;5.45;1.70;;;13.90;74.80;;;;;;5037933;28;20037;-78
2024/02/19 09:28:39;;;;;;;7.20;2.40;;;14.00;74.80;;;;;;5031180;28;20602;-77
2024/02/19 09:31:25;;;;;;;5.00;1.92;;;14.00;74.60;;;;;;5040158;28;20497;-77
2024/02/19 09:34:10;;;;;;;4.30;1.55;;;14.10;75.20;;;;;;5025062;28;20094;-76
2024/02/19 09:36:55;;;;;;;5.65;2.25;;;14.10;74.50;;;;;;5032319;28;20129;-77
2024/02/19 09:39:40;;;;;;;5.07;1.83;;;14.20;74.50;;;;;;5033676;28;20209;-77
2024/02/19 09:42:32;;;;;;;3.90;1.73;;;14.20;74.50;;;;;;5034452;28;20667;-77
2024/02/19 09:45:16;;;;;;;3.65;1.50;;;14.30;74.50;;;;;;5031912;28;20048;-77
2024/02/19 09:48:02;;;;;;;4.75;2.20;;;14.30;74.40;;;;;;5033008;28;20044;-78
2024/02/19 09:50:48;;;;;;;3.88;1.70;;;14.30;74.20;;;;;;5032079;28;20112;-78
2024/02/19 09:53:35;;;;;;;4.47;1.58;;;14.40;74.30;;;;;;5034763;28;20132;-77
2024/02/19 09:56:22;;;;;;;3.85;1.90;;;14.40;74.20;;;;;;5038908;28;20358;-77
2024/02/19 09:59:08;;;;;;;3.58;1.52;;;14.40;74.10;;;;;;5045142;28;20134;-77
2024/02/19 10:01:55;;;;;;;4.93;1.77;;;14.40;74.10;;;;;;5048373;28;20070;-77
2024/02/19 10:04:41;;;;;;;5.40;1.95;;;14.50;74.10;;;;;;5039197;28;20060;-78
2024/02/19 10:07:25;;;;;;;3.72;1.55;;;14.50;74.10;;;;;;5037944;28;20110;-78
2024/02/19 10:10:10;;;;;;;6.60;2.00;;;14.60;74.10;;;;;;5035968;28;20041;-78
2024/02/19 10:12:54;;;;;;;3.15;1.45;;;14.60;74.00;;;;;;5019041;28;20059;-78
2024/02/19 10:15:39;;;;;;;5.38;2.25;;;14.70;74.00;;;;;;5033442;28;20072;-78
2024/02/19 10:18:23;;;;;;;5.60;1.88;;;14.70;73.90;;;;;;5034973;28;20110;-78
2024/02/19 10:21:09;;;;;;;3.88;1.92;;;14.80;73.90;;;;;;5039456;28;20036;-78
2024/02/19 10:23:54;;;;;;;4.82;1.98;;;14.80;73.80;;;;;;5041651;28;20051;-78
2024/02/19 10:26:39;;;;;;;4.50;1.60;;;14.90;73.90;;;;;;5029099;28;20467;-78
2024/02/19 10:29:27;;;;;;;3.35;1.45;;;14.90;73.80;;;;;;5036879;28;20223;-78
2024/02/19 10:32:12;;;;;;;4.55;1.70;;;15.00;73.80;;;;;;5032629;28;20060;-78
2024/02/19 10:34:56;;;;;;;4.63;2.08;;;15.00;73.70;;;;;;5034731;28;20048;-80
2024/02/19 10:37:41;;;;;;;5.18;2.35;;;15.10;73.70;;;;;;5030902;28;20693;-78
2024/02/19 10:40:27;;;;;;;4.07;1.67;;;15.10;73.60;;;;;;5034692;28;20186;-77
2024/02/19 10:43:11;;;;;;;6.22;2.08;;;15.20;73.60;;;;;;5035189;28;20060;-78
2024/02/19 10:45:58;;;;;;;6.28;2.22;;;15.30;74.10;;;;;;5028865;28;20044;-78
2024/02/19 10:48:43;;;;;;;4.32;1.73;;;15.40;73.50;;;;;;5031422;28;20044;-78
2024/02/19 10:51:29;;;;;;;4.47;2.03;;;15.50;73.50;;;;;;5020527;28;20048;-79
2024/02/19 10:54:17;;;;;;;4.95;2.03;;;15.60;73.50;;;;;;5036886;28;20036;-78
2024/02/19 10:57:07;;;;;;;7.20;2.30;;;15.60;73.40;;;;;;5034823;28;20098;-78
2024/02/19 11:00:05;;;;;;;4.72;2.00;;;15.70;73.40;;;;;;5035383;28;20396;-79
2024/02/19 11:03:03;;;;;;;5.18;1.92;;;15.80;73.40;;;;;;5031325;28;20044;-78
2024/02/19 11:05:48;;;;;;;6.18;2.15;;;15.90;73.30;;;;;;5035415;28;20094;-79
2024/02/19 11:08:35;;;;;;;6.63;1.92;;;16.00;73.30;;;;;;5019855;28;20123;-79
2024/02/19 11:11:21;;;;;;;5.88;2.08;;;16.00;73.10;;;;;;5029681;28;20579;-78
2024/02/19 11:14:06;;;;;;;7.28;2.88;;;16.10;73.10;;;;;;5044633;28;20138;-78
2024/02/19 11:16:53;;;;;;;4.95;1.88;;;16.20;73.10;;;;;;5032070;28;20090;-79
2024/02/19 11:19:39;;;;;;;8.23;2.75;;;16.20;73.00;;;;;;5028700;28;20059;-78
2024/02/19 11:22:30;;;;;;;5.93;2.00;;;16.30;73.00;;;;;;5040279;28;20068;-81
2024/02/19 11:25:14;;;;;;;4.60;2.58;;;16.30;72.90;;;;;;5033076;28;20107;-79
2024/02/19 11:28:02;;;;;;;5.30;2.47;;;16.40;72.90;;;;;;5032486;28;20040;-80
2024/02/19 11:30:46;;;;;;;6.18;1.70;;;16.40;72.80;;;;;;5038579;28;20093;-78
2024/02/19 11:33:31;;;;;;;4.32;2.38;;;16.50;72.80;;;;;;5040389;28;20118;-77
2024/02/19 11:36:17;;;;;;;5.22;2.13;;;16.50;72.70;;;;;;5027665;28;20103;-77
2024/02/19 11:39:02;;;;;;;5.15;1.73;;;16.50;72.60;;;;;;5029218;28;20055;-78
2024/02/19 11:41:46;;;;;;;8.43;2.95;;;16.60;72.60;;;;;;5037057;28;20032;-77
2024/02/19 11:44:33;;;;;;;2.97;1.83;;;16.60;72.50;;;;;;5022777;28;20101;-77
2024/02/19 11:47:17;;;;;;;6.50;2.08;;;16.60;72.40;;;;;;5033400;28;20408;-78
2024/02/19 11:50:04;;;;;;;5.15;2.13;;;16.60;72.40;;;;;;5028594;28;20412;-78
2024/02/19 11:52:50;;;;;;;4.65;1.70;;;16.60;72.30;;;;;;5040142;28;20143;-79
2024/02/19 11:55:35;;;;;;;10.18;2.75;;;16.50;72.10;;;;;;5031655;28;20106;-78
2024/02/19 11:58:20;;;;;;;4.07;2.00;;;16.50;72.10;;;;;;5034828;28;20134;-79
2024/02/19 12:01:05;;;;;;;4.70;2.60;;;16.50;72.00;;;;;;5042761;28;20110;-78
2024/02/19 12:03:51;;;;;;;3.97;1.90;;;16.50;72.00;;;;;;5038406;28;20052;-78
2024/02/19 12:06:39;;;;;;;6.95;2.15;;;16.50;71.90;;;;;;5041690;28;20067;-78
2024/02/19 12:09:24;;;;;;;5.65;1.60;;;16.50;71.80;;;;;;5036715;28;20043;-78
2024/02/19 12:12:10;;;;;;;6.38;2.85;;;16.50;71.80;;;;;;5036389;28;20465;-81
2024/02/19 12:14:54;;;;;;;6.47;2.05;;;16.50;71.70;;;;;;5035009;28;20386;-78
2024/02/19 12:17:44;;;;;;;5.28;2.75;;;16.50;71.70;;;;;;5033390;28;20160;-79
2024/02/19 12:20:29;;;;;;;10.93;3.13;;;16.50;71.60;;;;;;5027444;28;20047;-80
2024/02/19 12:23:14;;;;;;;18.33;4.45;;;16.50;71.60;;;;;;5033381;28;20627;-79
2024/02/19 12:25:58;;;;;;;15.05;4.03;;;16.60;71.70;;;;;;5031647;28;20044;-79
2024/02/19 12:28:44;;;;;;;15.43;3.83;;;16.50;71.60;;;;;;5042232;28;20582;-79
2024/02/19 12:31:28;;;;;;;12.55;3.20;;;16.60;71.70;;;;;;5036173;28;20056;-79
2024/02/19 12:34:15;;;;;;;10.40;3.75;;;16.70;71.70;;;;;;5030924;28;20651;-78
2024/02/19 12:36:59;;;;;;;13.15;3.55;;;16.80;71.70;;;;;;5033350;28;20145;-79
2024/02/19 12:39:45;;;;;;;9.55;2.47;;;16.90;71.70;;;;;;5037456;28;20209;-78
2024/02/19 12:42:29;;;;;;;11.18;2.60;;;17.10;71.90;;;;;;5041183;28;20652;-78
2024/02/19 12:45:14;;;;;;;9.50;3.00;;;17.30;72.20;;;;;;5036386;28;20044;-78
2024/02/19 12:47:59;;;;;;;9.38;3.67;;;17.50;72.10;;;;;;5039456;28;20374;-77
2024/02/19 12:50:45;;;;;;;7.10;2.13;;;17.80;72.20;;;;;;5030289;28;20891;-77
2024/02/19 12:53:29;;;;;;;11.55;2.50;;;18.10;72.20;;;;;;5034444;28;20420;-77
2024/02/19 12:56:14;;;;;;;7.22;1.92;;;18.20;71.80;;;;;;5037530;28;20503;-77
2024/02/19 12:58:59;;;;;;;8.32;3.10;;;18.50;71.80;;;;;;5040238;28;20059;-77
2024/02/19 13:01:43;;;;;;;5.13;2.13;;;18.60;71.50;;;;;;5041947;28;20598;-77
2024/02/19 13:04:28;;;;;;;8.18;2.55;;;18.80;71.40;;;;;;5031026;28;20483;-77
2024/02/19 13:07:14;;;;;;;6.70;1.58;;;18.90;71.70;;;;;;5038870;28;20068;-77
2024/02/19 13:09:59;;;;;;;7.38;3.10;;;19.00;70.90;;;;;;5027990;28;20283;-77
2024/02/19 13:12:44;;;;;;;6.30;2.30;;;19.20;70.90;;;;;;5040872;28;20515;-77
2024/02/19 13:15:28;;;;;;;5.13;1.70;;;19.30;70.70;;;;;;5015737;28;20574;-77
2024/02/19 13:18:13;;;;;;;6.82;2.05;;;19.40;70.50;;;;;;5036600;28;20130;-77
2024/02/19 13:20:59;;;;;;;5.38;1.65;;;19.50;70.30;;;;;;5038222;28;20171;-77
2024/02/19 13:23:44;;;;;;;5.05;1.77;;;19.50;70.00;;;;;;5016370;28;20040;-76
2024/02/19 13:26:28;;;;;;;6.13;2.17;;;19.60;69.90;;;;;;5036736;28;20056;-77
2024/02/19 13:29:13;;;;;;;6.05;2.15;;;19.70;69.70;;;;;;5036034;28;20557;-78
2024/02/19 13:31:58;;;;;;;5.43;1.88;;;19.80;69.50;;;;;;5035432;28;20599;-78
2024/02/19 13:34:42;;;;;;;5.93;2.22;;;19.90;69.40;;;;;;5020944;28;20091;-78
2024/02/19 13:37:27;;;;;;;6.05;2.65;;;19.90;69.20;;;;;;5028402;28;20060;-77
2024/02/19 13:40:12;;;;;;;5.82;1.70;;;20.00;69.00;;;;;;5012493;28;20087;-78
2024/02/19 13:42:58;;;;;;;11.40;3.40;;;20.00;68.70;;;;;;5041715;28;20044;-77
2024/02/19 13:46:02;;;;;;;6.07;1.70;;;20.10;68.60;;;;;;5017829;28;20039;-78
2024/02/19 13:48:57;;;;;;;6.55;2.33;;;20.10;68.20;;;;;;5031959;28;20056;-78
2024/02/19 13:51:42;;;;;;;6.70;2.97;;;20.10;68.10;;;;;;5034031;28;20510;-78
2024/02/19 13:54:27;;;;;;;7.05;1.73;;;20.10;68.10;;;;;;5018852;28;20085;-78
2024/02/19 13:57:11;;;;;;;7.13;2.55;;;20.20;68.10;;;;;;5019251;28;20114;-78
2024/02/19 13:59:58;;;;;;;7.93;2.17;;;20.20;67.90;;;;;;5035292;28;20082;-78
2024/02/19 14:02:43;;;;;;;7.25;2.40;;;20.20;67.70;;;;;;5028775;28;20409;-77
2024/02/19 14:05:30;;;;;;;7.95;2.58;;;20.20;67.50;;;;;;5031918;28;20048;-77
2024/02/19 14:08:17;;;;;;;6.53;2.78;;;20.20;67.30;;;;;;5029760;28;20207;-77
2024/02/19 14:11:01;;;;;;;6.88;2.60;;;20.20;67.30;;;;;;5037418;28;20039;-78
2024/02/19 14:13:46;;;;;;;7.68;2.40;;;20.20;67.20;;;;;;5032980;28;20532;-77